sensor_id;sensor_type;location;lat;lon;timestamp;pressure;altitude;pressure_sealevel;temperature;humidity
73429;BME280;61643;49.564;17.412;2023-07-20T00:01:48;97462.38;;;18.54;89.77
73429;BME280;61643;49.564;17.412;2023-07-20T00:04:14;97455.16;;;18.49;90.55
73429;BME280;61643;49.564;17.412;2023-07-20T00:06:40;97450.88;;;18.40;89.54
73429;BME280;61643;49.564;17.412;2023-07-20T00:09:09;97450.84;;;18.48;89.97
73429;BME280;61643;49.564;17.412;2023-07-20T00:11:36;97441.44;;;18.37;89.97
73429;BME280;61643;49.564;17.412;2023-07-20T00:14:04;97449.09;;;18.44;89.09
73429;BME280;61643;49.564;17.412;2023-07-20T00:16:30;97443.13;;;18.59;89.53
73429;BME280;61643;49.564;17.412;2023-07-20T00:18:57;97456.19;;;18.74;87.79
73429;BME280;61643;49.564;17.412;2023-07-20T00:21:22;97467.25;;;18.78;85.77
73429;BME280;61643;49.564;17.412;2023-07-20T00:23:48;97486.47;;;18.81;85.37
73429;BME280;61643;49.564;17.412;2023-07-20T00:26:15;97514.41;;;18.78;84.39
73429;BME280;61643;49.564;17.412;2023-07-20T00:28:41;97538.94;;;18.78;81.96
73429;BME280;61643;49.564;17.412;2023-07-20T00:31:08;97531.44;;;18.66;82.55
73429;BME280;61643;49.564;17.412;2023-07-20T00:33:34;97515.41;;;18.65;83.08
73429;BME280;61643;49.564;17.412;2023-07-20T00:36:00;97510.47;;;18.58;83.99
73429;BME280;61643;49.564;17.412;2023-07-20T00:38:26;97514.66;;;18.39;86.99
73429;BME280;61643;49.564;17.412;2023-07-20T00:40:52;97509.19;;;18.39;86.64
73429;BME280;61643;49.564;17.412;2023-07-20T00:43:19;97511.34;;;18.07;88.63
73429;BME280;61643;49.564;17.412;2023-07-20T00:45:45;97509.41;;;17.99;86.20
73429;BME280;61643;49.564;17.412;2023-07-20T00:48:12;97512.16;;;18.08;83.02
73429;BME280;61643;49.564;17.412;2023-07-20T00:50:39;97501.22;;;18.16;84.10
73429;BME280;61643;49.564;17.412;2023-07-20T00:53:06;97503.63;;;18.18;84.12
73429;BME280;61643;49.564;17.412;2023-07-20T00:55:33;97500.56;;;18.19;83.09
73429;BME280;61643;49.564;17.412;2023-07-20T00:57:59;97498.50;;;18.25;83.79
73429;BME280;61643;49.564;17.412;2023-07-20T01:00:26;97509.53;;;18.29;84.62
73429;BME280;61643;49.564;17.412;2023-07-20T01:02:52;97505.06;;;18.24;84.83
73429;BME280;61643;49.564;17.412;2023-07-20T01:05:18;97508.44;;;18.30;83.82
73429;BME280;61643;49.564;17.412;2023-07-20T01:10:29;97513.88;;;18.30;83.74
73429;BME280;61643;49.564;17.412;2023-07-20T01:12:57;97514.84;;;18.25;84.31
73429;BME280;61643;49.564;17.412;2023-07-20T01:15:23;97503.34;;;18.02;87.00
73429;BME280;61643;49.564;17.412;2023-07-20T01:17:49;97513.41;;;18.02;86.91
73429;BME280;61643;49.564;17.412;2023-07-20T01:20:18;97506.72;;;17.82;87.82
73429;BME280;61643;49.564;17.412;2023-07-20T01:23:31;97520.47;;;18.03;86.30
73429;BME280;61643;49.564;17.412;2023-07-20T01:26:10;97526.25;;;18.01;88.13
73429;BME280;61643;49.564;17.412;2023-07-20T01:31:27;97524.97;;;17.82;89.28
73429;BME280;61643;49.564;17.412;2023-07-20T01:34:01;97528.63;;;17.60;91.12
73429;BME280;61643;49.564;17.412;2023-07-20T01:36:30;97523.19;;;17.60;91.78
73429;BME280;61643;49.564;17.412;2023-07-20T01:39:02;97524.47;;;17.71;90.07
73429;BME280;61643;49.564;17.412;2023-07-20T01:41:30;97525.38;;;17.49;91.12
73429;BME280;61643;49.564;17.412;2023-07-20T01:44:00;97518.44;;;17.26;92.23
73429;BME280;61643;49.564;17.412;2023-07-20T01:46:26;97518.19;;;17.36;90.40
73429;BME280;61643;49.564;17.412;2023-07-20T01:48:54;97513.69;;;17.49;90.87
73429;BME280;61643;49.564;17.412;2023-07-20T01:51:20;97516.28;;;17.54;89.19
73429;BME280;61643;49.564;17.412;2023-07-20T01:53:46;97523.84;;;17.57;88.73
73429;BME280;61643;49.564;17.412;2023-07-20T01:56:12;97518.72;;;17.64;88.81
73429;BME280;61643;49.564;17.412;2023-07-20T01:58:38;97520.16;;;17.70;88.71
73429;BME280;61643;49.564;17.412;2023-07-20T02:01:04;97504.25;;;17.55;90.13
73429;BME280;61643;49.564;17.412;2023-07-20T02:03:30;97514.03;;;17.56;89.32
73429;BME280;61643;49.564;17.412;2023-07-20T02:05:56;97521.50;;;17.25;91.19
73429;BME280;61643;49.564;17.412;2023-07-20T02:08:25;97522.81;;;17.36;91.02
73429;BME280;61643;49.564;17.412;2023-07-20T02:10:51;97529.16;;;17.22;92.76
73429;BME280;61643;49.564;17.412;2023-07-20T02:13:18;97529.50;;;17.30;91.73
73429;BME280;61643;49.564;17.412;2023-07-20T02:15:44;97526.81;;;17.38;90.58
73429;BME280;61643;49.564;17.412;2023-07-20T02:18:10;97530.81;;;17.32;90.67
73429;BME280;61643;49.564;17.412;2023-07-20T02:20:36;97532.38;;;17.25;92.00
73429;BME280;61643;49.564;17.412;2023-07-20T02:23:02;97536.22;;;17.23;91.71
73429;BME280;61643;49.564;17.412;2023-07-20T02:25:28;97541.81;;;17.27;91.62
73429;BME280;61643;49.564;17.412;2023-07-20T02:27:56;97553.47;;;17.10;93.19
73429;BME280;61643;49.564;17.412;2023-07-20T02:30:22;97541.94;;;17.13;91.91
73429;BME280;61643;49.564;17.412;2023-07-20T02:32:48;97559.53;;;17.16;91.56
73429;BME280;61643;49.564;17.412;2023-07-20T02:35:17;97564.25;;;16.93;94.40
73429;BME280;61643;49.564;17.412;2023-07-20T02:37:44;97575.00;;;16.98;93.99
73429;BME280;61643;49.564;17.412;2023-07-20T02:40:10;97576.16;;;16.75;96.96
73429;BME280;61643;49.564;17.412;2023-07-20T02:42:37;97580.97;;;16.78;96.47
73429;BME280;61643;49.564;17.412;2023-07-20T02:45:03;97580.56;;;16.62;96.77
73429;BME280;61643;49.564;17.412;2023-07-20T02:47:30;97578.94;;;16.61;98.50
73429;BME280;61643;49.564;17.412;2023-07-20T02:49:56;97572.59;;;16.66;97.43
73429;BME280;61643;49.564;17.412;2023-07-20T02:52:22;97572.09;;;16.64;98.18
73429;BME280;61643;49.564;17.412;2023-07-20T02:54:49;97584.66;;;16.82;96.63
73429;BME280;61643;49.564;17.412;2023-07-20T02:57:15;97589.66;;;16.89;95.95
73429;BME280;61643;49.564;17.412;2023-07-20T02:59:42;97596.66;;;16.81;97.48
73429;BME280;61643;49.564;17.412;2023-07-20T03:02:08;97589.22;;;16.95;96.09
73429;BME280;61643;49.564;17.412;2023-07-20T03:04:36;97589.69;;;16.97;95.35
73429;BME280;61643;49.564;17.412;2023-07-20T03:07:06;97586.34;;;17.00;95.37
73429;BME280;61643;49.564;17.412;2023-07-20T03:09:33;97590.38;;;17.03;96.31
73429;BME280;61643;49.564;17.412;2023-07-20T03:11:59;97582.88;;;17.08;95.65
73429;BME280;61643;49.564;17.412;2023-07-20T03:14:25;97597.94;;;17.14;95.54
73429;BME280;61643;49.564;17.412;2023-07-20T03:16:51;97593.38;;;17.01;97.21
73429;BME280;61643;49.564;17.412;2023-07-20T03:19:17;97591.78;;;17.00;97.08
73429;BME280;61643;49.564;17.412;2023-07-20T03:21:43;97595.47;;;17.04;96.58
73429;BME280;61643;49.564;17.412;2023-07-20T03:24:09;97602.41;;;17.10;95.56
73429;BME280;61643;49.564;17.412;2023-07-20T03:26:36;97609.28;;;17.16;94.59
73429;BME280;61643;49.564;17.412;2023-07-20T03:29:04;97618.44;;;17.20;94.54
73429;BME280;61643;49.564;17.412;2023-07-20T03:31:31;97614.09;;;17.19;94.14
73429;BME280;61643;49.564;17.412;2023-07-20T03:33:57;97623.53;;;17.13;95.36
73429;BME280;61643;49.564;17.412;2023-07-20T03:36:23;97622.72;;;17.13;94.95
73429;BME280;61643;49.564;17.412;2023-07-20T03:38:49;97622.91;;;17.16;94.96
73429;BME280;61643;49.564;17.412;2023-07-20T03:41:15;97637.41;;;17.12;94.34
73429;BME280;61643;49.564;17.412;2023-07-20T03:43:42;97651.69;;;17.17;93.37
73429;BME280;61643;49.564;17.412;2023-07-20T03:46:08;97653.16;;;17.23;93.41
73429;BME280;61643;49.564;17.412;2023-07-20T03:48:34;97648.38;;;17.29;93.23
73429;BME280;61643;49.564;17.412;2023-07-20T03:51:00;97642.94;;;17.29;94.02
73429;BME280;61643;49.564;17.412;2023-07-20T03:53:26;97651.09;;;17.29;94.41
73429;BME280;61643;49.564;17.412;2023-07-20T03:55:53;97650.78;;;17.31;94.53
73429;BME280;61643;49.564;17.412;2023-07-20T03:58:19;97653.50;;;17.31;94.64
73429;BME280;61643;49.564;17.412;2023-07-20T04:00:48;97659.63;;;17.36;94.37
73429;BME280;61643;49.564;17.412;2023-07-20T04:03:16;97659.63;;;17.36;93.69
73429;BME280;61643;49.564;17.412;2023-07-20T04:05:44;97680.16;;;17.51;93.60
73429;BME280;61643;49.564;17.412;2023-07-20T04:08:10;97680.56;;;17.58;93.27
73429;BME280;61643;49.564;17.412;2023-07-20T04:10:37;97680.72;;;17.70;93.76
73429;BME280;61643;49.564;17.412;2023-07-20T04:13:04;97693.53;;;17.69;93.75
73429;BME280;61643;49.564;17.412;2023-07-20T04:15:30;97685.84;;;17.63;93.14
73429;BME280;61643;49.564;17.412;2023-07-20T04:17:57;97693.53;;;17.61;92.76
73429;BME280;61643;49.564;17.412;2023-07-20T04:20:23;97691.78;;;17.65;92.57
73429;BME280;61643;49.564;17.412;2023-07-20T04:22:49;97696.09;;;17.66;92.01
73429;BME280;61643;49.564;17.412;2023-07-20T04:25:17;97699.66;;;17.75;91.48
73429;BME280;61643;49.564;17.412;2023-07-20T04:27:43;97695.00;;;17.45;96.92
73429;BME280;61643;49.564;17.412;2023-07-20T04:30:10;97681.28;;;17.50;95.45
73429;BME280;61643;49.564;17.412;2023-07-20T04:32:38;97689.22;;;17.68;93.37
73429;BME280;61643;49.564;17.412;2023-07-20T04:35:07;97688.00;;;17.83;91.32
73429;BME280;61643;49.564;17.412;2023-07-20T04:37:36;97691.53;;;17.92;93.52
73429;BME280;61643;49.564;17.412;2023-07-20T04:40:02;97690.13;;;18.03;92.25
73429;BME280;61643;49.564;17.412;2023-07-20T04:42:29;97693.50;;;18.17;91.16
73429;BME280;61643;49.564;17.412;2023-07-20T04:44:55;97691.75;;;18.22;90.23
73429;BME280;61643;49.564;17.412;2023-07-20T04:47:20;97696.25;;;18.35;89.84
73429;BME280;61643;49.564;17.412;2023-07-20T04:49:46;97698.81;;;18.31;89.00
73429;BME280;61643;49.564;17.412;2023-07-20T04:52:12;97702.34;;;18.49;86.24
73429;BME280;61643;49.564;17.412;2023-07-20T04:54:38;97705.91;;;18.58;88.36
73429;BME280;61643;49.564;17.412;2023-07-20T04:57:10;97707.31;;;18.81;86.94
73429;BME280;61643;49.564;17.412;2023-07-20T04:59:37;97701.38;;;18.96;85.16
73429;BME280;61643;49.564;17.412;2023-07-20T05:02:03;97711.44;;;19.22;83.58
73429;BME280;61643;49.564;17.412;2023-07-20T05:04:29;97721.38;;;19.43;82.21
73429;BME280;61643;49.564;17.412;2023-07-20T05:06:55;97708.69;;;19.39;82.71
73429;BME280;61643;49.564;17.412;2023-07-20T05:09:20;97725.53;;;19.41;85.21
73429;BME280;61643;49.564;17.412;2023-07-20T05:11:48;97728.06;;;19.63;82.87
73429;BME280;61643;49.564;17.412;2023-07-20T05:14:14;97726.38;;;19.79;81.82
73429;BME280;61643;49.564;17.412;2023-07-20T05:16:40;97733.94;;;19.82;82.04
73429;BME280;61643;49.564;17.412;2023-07-20T05:19:06;97748.78;;;19.64;82.09
73429;BME280;61643;49.564;17.412;2023-07-20T05:21:32;97738.03;;;19.59;82.69
73429;BME280;61643;49.564;17.412;2023-07-20T05:23:58;97719.75;;;19.51;82.41
73429;BME280;61643;49.564;17.412;2023-07-20T05:26:24;97733.50;;;19.63;81.05
73429;BME280;61643;49.564;17.412;2023-07-20T05:28:50;97733.91;;;19.44;80.34
73429;BME280;61643;49.564;17.412;2023-07-20T05:31:16;97728.41;;;19.53;80.33
73429;BME280;61643;49.564;17.412;2023-07-20T05:33:42;97736.72;;;19.65;81.01
73429;BME280;61643;49.564;17.412;2023-07-20T05:36:08;97736.84;;;19.77;78.63
73429;BME280;61643;49.564;17.412;2023-07-20T05:38:33;97737.66;;;19.69;77.49
73429;BME280;61643;49.564;17.412;2023-07-20T05:41:00;97744.19;;;19.85;77.62
73429;BME280;61643;49.564;17.412;2023-07-20T05:43:27;97735.84;;;19.82;77.52
73429;BME280;61643;49.564;17.412;2023-07-20T05:45:53;97727.94;;;19.89;77.60
73429;BME280;61643;49.564;17.412;2023-07-20T05:48:19;97739.59;;;20.06;77.41
73429;BME280;61643;49.564;17.412;2023-07-20T05:50:45;97738.47;;;20.07;77.25
73429;BME280;61643;49.564;17.412;2023-07-20T05:53:11;97737.44;;;20.12;75.70
73429;BME280;61643;49.564;17.412;2023-07-20T05:55:37;97723.47;;;20.13;75.21
73429;BME280;61643;49.564;17.412;2023-07-20T05:58:05;97725.13;;;20.06;77.07
73429;BME280;61643;49.564;17.412;2023-07-20T06:00:31;97723.25;;;20.19;76.62
73429;BME280;61643;49.564;17.412;2023-07-20T06:02:57;97720.94;;;20.38;73.72
73429;BME280;61643;49.564;17.412;2023-07-20T06:05:23;97721.69;;;20.47;73.04
73429;BME280;61643;49.564;17.412;2023-07-20T06:07:50;97726.63;;;20.53;72.97
73429;BME280;61643;49.564;17.412;2023-07-20T06:10:16;97733.56;;;20.51;72.53
73429;BME280;61643;49.564;17.412;2023-07-20T06:12:42;97729.94;;;20.59;72.03
73429;BME280;61643;49.564;17.412;2023-07-20T06:15:33;97729.81;;;20.55;70.41
73429;BME280;61643;49.564;17.412;2023-07-20T06:18:02;97728.00;;;20.59;71.65
73429;BME280;61643;49.564;17.412;2023-07-20T06:20:29;97732.13;;;20.66;71.01
73429;BME280;61643;49.564;17.412;2023-07-20T06:22:56;97732.75;;;20.71;70.62
73429;BME280;61643;49.564;17.412;2023-07-20T06:25:22;97736.59;;;20.70;70.03
73429;BME280;61643;49.564;17.412;2023-07-20T06:27:49;97748.53;;;20.66;68.94
73429;BME280;61643;49.564;17.412;2023-07-20T06:30:17;97740.69;;;20.64;70.35
73429;BME280;61643;49.564;17.412;2023-07-20T06:32:44;97742.75;;;20.67;69.95
73429;BME280;61643;49.564;17.412;2023-07-20T06:35:10;97750.28;;;20.70;70.44
73429;BME280;61643;49.564;17.412;2023-07-20T06:37:35;97752.16;;;20.78;70.34
73429;BME280;61643;49.564;17.412;2023-07-20T06:40:05;97758.56;;;20.82;71.35
73429;BME280;61643;49.564;17.412;2023-07-20T06:42:31;97759.97;;;20.88;70.18
73429;BME280;61643;49.564;17.412;2023-07-20T06:44:57;97756.75;;;20.86;70.61
73429;BME280;61643;49.564;17.412;2023-07-20T06:47:23;97753.56;;;20.84;69.86
73429;BME280;61643;49.564;17.412;2023-07-20T06:49:49;97752.56;;;20.89;69.60
73429;BME280;61643;49.564;17.412;2023-07-20T06:52:15;97754.63;;;20.92;69.89
73429;BME280;61643;49.564;17.412;2023-07-20T06:54:41;97750.56;;;20.98;70.32
73429;BME280;61643;49.564;17.412;2023-07-20T06:57:07;97748.69;;;20.90;68.64
73429;BME280;61643;49.564;17.412;2023-07-20T06:59:33;97746.75;;;20.90;67.54
73429;BME280;61643;49.564;17.412;2023-07-20T07:01:59;97744.59;;;20.96;72.41
73429;BME280;61643;49.564;17.412;2023-07-20T07:04:25;97743.00;;;20.95;69.03
73429;BME280;61643;49.564;17.412;2023-07-20T07:06:51;97745.41;;;20.96;69.58
73429;BME280;61643;49.564;17.412;2023-07-20T07:09:17;97745.41;;;20.96;68.57
73429;BME280;61643;49.564;17.412;2023-07-20T07:11:44;97739.50;;;21.06;69.97
73429;BME280;61643;49.564;17.412;2023-07-20T07:14:12;97743.06;;;21.07;70.08
73429;BME280;61643;49.564;17.412;2023-07-20T07:16:37;97741.84;;;21.17;69.17
73429;BME280;61643;49.564;17.412;2023-07-20T07:19:04;97744.47;;;21.13;67.22
73429;BME280;61643;49.564;17.412;2023-07-20T07:21:31;97749.75;;;20.97;71.29
73429;BME280;61643;49.564;17.412;2023-07-20T07:23:57;97752.75;;;20.84;68.40
73429;BME280;61643;49.564;17.412;2023-07-20T07:26:25;97745.44;;;20.76;68.79
73429;BME280;61643;49.564;17.412;2023-07-20T07:28:51;97754.56;;;20.80;68.36
73429;BME280;61643;49.564;17.412;2023-07-20T07:31:17;97750.13;;;20.87;70.41
73429;BME280;61643;49.564;17.412;2023-07-20T07:33:43;97751.47;;;21.23;69.13
73429;BME280;61643;49.564;17.412;2023-07-20T07:36:09;97748.00;;;21.46;67.35
73429;BME280;61643;49.564;17.412;2023-07-20T07:38:35;97747.44;;;21.41;67.33
73429;BME280;61643;49.564;17.412;2023-07-20T07:41:01;97741.72;;;21.46;65.67
73429;BME280;61643;49.564;17.412;2023-07-20T07:43:26;97750.09;;;21.62;65.78
73429;BME280;61643;49.564;17.412;2023-07-20T07:45:54;97747.31;;;21.49;64.98
73429;BME280;61643;49.564;17.412;2023-07-20T07:48:20;97753.72;;;21.53;68.25
73429;BME280;61643;49.564;17.412;2023-07-20T07:50:47;97749.78;;;21.63;67.27
73429;BME280;61643;49.564;17.412;2023-07-20T07:53:13;97753.53;;;21.71;66.64
73429;BME280;61643;49.564;17.412;2023-07-20T07:55:39;97752.28;;;21.68;65.42
73429;BME280;61643;49.564;17.412;2023-07-20T07:58:05;97752.63;;;21.67;66.12
73429;BME280;61643;49.564;17.412;2023-07-20T08:00:31;97752.84;;;21.62;65.62
73429;BME280;61643;49.564;17.412;2023-07-20T08:02:57;97752.72;;;21.58;65.01
73429;BME280;61643;49.564;17.412;2023-07-20T08:05:23;97754.31;;;21.71;65.11
73429;BME280;61643;49.564;17.412;2023-07-20T08:07:49;97750.66;;;21.67;65.33
73429;BME280;61643;49.564;17.412;2023-07-20T08:10:14;97756.38;;;21.62;65.66
73429;BME280;61643;49.564;17.412;2023-07-20T08:12:40;97753.19;;;21.72;65.76
73429;BME280;61643;49.564;17.412;2023-07-20T08:15:07;97748.59;;;21.64;64.89
73429;BME280;61643;49.564;17.412;2023-07-20T08:17:33;97755.81;;;21.69;64.06
73429;BME280;61643;49.564;17.412;2023-07-20T08:19:59;97752.63;;;21.67;64.49
73429;BME280;61643;49.564;17.412;2023-07-20T08:22:25;97748.16;;;21.74;63.84
73429;BME280;61643;49.564;17.412;2023-07-20T08:24:51;97758.22;;;21.82;67.08
73429;BME280;61643;49.564;17.412;2023-07-20T08:27:17;97750.59;;;21.88;65.35
73429;BME280;61643;49.564;17.412;2023-07-20T08:29:43;97746.19;;;21.95;64.51
73429;BME280;61643;49.564;17.412;2023-07-20T08:32:09;97745.16;;;22.12;63.97
73429;BME280;61643;49.564;17.412;2023-07-20T08:34:35;97747.91;;;22.24;63.81
73429;BME280;61643;49.564;17.412;2023-07-20T08:37:01;97756.22;;;22.16;63.35
73429;BME280;61643;49.564;17.412;2023-07-20T08:39:27;97755.78;;;22.14;63.02
73429;BME280;61643;49.564;17.412;2023-07-20T08:41:54;97750.72;;;22.03;65.10
73429;BME280;61643;49.564;17.412;2023-07-20T08:44:21;97748.31;;;22.14;64.48
73429;BME280;61643;49.564;17.412;2023-07-20T08:46:48;97744.78;;;22.26;63.85
73429;BME280;61643;49.564;17.412;2023-07-20T08:49:16;97745.47;;;22.35;62.64
73429;BME280;61643;49.564;17.412;2023-07-20T08:51:45;97750.38;;;22.41;62.26
73429;BME280;61643;49.564;17.412;2023-07-20T08:54:13;97754.16;;;22.49;61.96
73429;BME280;61643;49.564;17.412;2023-07-20T08:56:40;97754.03;;;22.45;60.96
73429;BME280;61643;49.564;17.412;2023-07-20T08:59:08;97761.69;;;22.40;60.25
73429;BME280;61643;49.564;17.412;2023-07-20T09:01:36;97756.34;;;22.31;59.97
73429;BME280;61643;49.564;17.412;2023-07-20T09:04:04;97752.75;;;22.43;59.80
73429;BME280;61643;49.564;17.412;2023-07-20T09:06:31;97749.41;;;22.62;58.65
73429;BME280;61643;49.564;17.412;2023-07-20T09:08:57;97750.69;;;22.76;61.85
73429;BME280;61643;49.564;17.412;2023-07-20T09:11:23;97744.22;;;22.96;60.01
73429;BME280;61643;49.564;17.412;2023-07-20T09:14:02;97753.66;;;23.11;61.90
73429;BME280;61643;49.564;17.412;2023-07-20T09:16:28;97760.72;;;23.12;60.21
73429;BME280;61643;49.564;17.412;2023-07-20T09:18:58;97750.16;;;22.98;60.11
73429;BME280;61643;49.564;17.412;2023-07-20T09:21:28;97748.31;;;23.02;60.89
73429;BME280;61643;49.564;17.412;2023-07-20T09:23:56;97751.06;;;23.02;59.59
73429;BME280;61643;49.564;17.412;2023-07-20T09:26:22;97742.47;;;23.04;58.15
73429;BME280;61643;49.564;17.412;2023-07-20T09:28:51;97737.97;;;23.12;57.77
73429;BME280;61643;49.564;17.412;2023-07-20T09:31:19;97742.97;;;23.22;58.76
73429;BME280;61643;49.564;17.412;2023-07-20T09:33:46;97747.66;;;23.21;55.46
73429;BME280;61643;49.564;17.412;2023-07-20T09:36:12;97731.00;;;23.30;54.60
73429;BME280;61643;49.564;17.412;2023-07-20T09:38:40;97726.19;;;23.39;55.12
73429;BME280;61643;49.564;17.412;2023-07-20T09:41:07;97731.88;;;23.46;56.50
73429;BME280;61643;49.564;17.412;2023-07-20T09:43:36;97729.22;;;23.49;57.59
73429;BME280;61643;49.564;17.412;2023-07-20T09:46:02;97742.63;;;23.51;54.66
73429;BME280;61643;49.564;17.412;2023-07-20T09:48:29;97740.97;;;23.62;50.97
73429;BME280;61643;49.564;17.412;2023-07-20T09:50:56;97735.28;;;23.71;50.51
73429;BME280;61643;49.564;17.412;2023-07-20T09:53:24;97731.91;;;23.77;50.47
73429;BME280;61643;49.564;17.412;2023-07-20T09:55:52;97734.56;;;23.89;49.19
73429;BME280;61643;49.564;17.412;2023-07-20T09:58:18;97730.56;;;24.02;48.61
73429;BME280;61643;49.564;17.412;2023-07-20T10:00:45;97728.19;;;24.17;45.51
73429;BME280;61643;49.564;17.412;2023-07-20T10:03:19;97732.06;;;24.31;45.87
73429;BME280;61643;49.564;17.412;2023-07-20T10:06:04;97738.38;;;24.32;47.13
73429;BME280;61643;49.564;17.412;2023-07-20T10:08:32;97728.81;;;24.26;46.04
73429;BME280;61643;49.564;17.412;2023-07-20T10:11:02;97724.91;;;24.27;45.34
73429;BME280;61643;49.564;17.412;2023-07-20T10:13:29;97721.59;;;24.37;46.57
73429;BME280;61643;49.564;17.412;2023-07-20T10:16:06;97722.47;;;24.41;44.59
73429;BME280;61643;49.564;17.412;2023-07-20T10:18:55;97723.34;;;24.45;43.46
73429;BME280;61643;49.564;17.412;2023-07-20T10:21:25;97727.41;;;24.51;44.45
73429;BME280;61643;49.564;17.412;2023-07-20T10:23:51;97724.22;;;24.49;44.28
73429;BME280;61643;49.564;17.412;2023-07-20T10:26:17;97712.06;;;24.50;46.03
73429;BME280;61643;49.564;17.412;2023-07-20T10:28:43;97705.13;;;24.56;45.45
73429;BME280;61643;49.564;17.412;2023-07-20T10:31:12;97712.50;;;24.52;42.66
73429;BME280;61643;49.564;17.412;2023-07-20T10:33:38;97713.13;;;24.45;43.90
73429;BME280;61643;49.564;17.412;2023-07-20T10:36:05;97722.59;;;24.29;46.82
73429;BME280;61643;49.564;17.412;2023-07-20T10:38:42;97708.19;;;24.35;47.43
73429;BME280;61643;49.564;17.412;2023-07-20T10:41:19;97716.25;;;24.44;47.88
73429;BME280;61643;49.564;17.412;2023-07-20T10:43:47;97709.94;;;24.43;45.30
73429;BME280;61643;49.564;17.412;2023-07-20T10:46:14;97715.75;;;24.58;45.38
73429;BME280;61643;49.564;17.412;2023-07-20T10:48:59;97701.66;;;24.59;46.03
73429;BME280;61643;49.564;17.412;2023-07-20T10:51:25;97709.06;;;24.74;46.40
73429;BME280;61643;49.564;17.412;2023-07-20T10:53:51;97719.34;;;24.77;45.70
73429;BME280;61643;49.564;17.412;2023-07-20T10:56:20;97719.41;;;24.81;45.18
73429;BME280;61643;49.564;17.412;2023-07-20T10:58:46;97705.72;;;24.65;45.39
73429;BME280;61643;49.564;17.412;2023-07-20T11:01:14;97713.97;;;24.65;45.70
73429;BME280;61643;49.564;17.412;2023-07-20T11:03:41;97715.72;;;24.73;43.96
73429;BME280;61643;49.564;17.412;2023-07-20T11:14:09;97711.75;;;24.90;42.51
73429;BME280;61643;49.564;17.412;2023-07-20T11:16:40;97700.25;;;24.84;42.56
73429;BME280;61643;49.564;17.412;2023-07-20T11:19:14;97695.38;;;24.78;42.95
73429;BME280;61643;49.564;17.412;2023-07-20T11:21:45;97695.91;;;24.83;43.80
73429;BME280;61643;49.564;17.412;2023-07-20T11:24:12;97695.31;;;24.93;41.97
73429;BME280;61643;49.564;17.412;2023-07-20T11:26:49;97692.94;;;24.92;41.49
73429;BME280;61643;49.564;17.412;2023-07-20T11:29:18;97701.13;;;24.88;41.84
73429;BME280;61643;49.564;17.412;2023-07-20T11:31:46;97698.47;;;24.76;42.81
73429;BME280;61643;49.564;17.412;2023-07-20T11:34:13;97701.31;;;24.80;42.98
73429;BME280;61643;49.564;17.412;2023-07-20T11:36:46;97705.06;;;24.53;43.26
73429;BME280;61643;49.564;17.412;2023-07-20T11:39:14;97701.34;;;24.45;43.88
73429;BME280;61643;49.564;17.412;2023-07-20T11:41:54;97709.28;;;24.31;40.83
73429;BME280;61643;49.564;17.412;2023-07-20T11:44:22;97707.38;;;24.16;40.19
73429;BME280;61643;49.564;17.412;2023-07-20T11:47:04;97718.75;;;24.02;40.89
73429;BME280;61643;49.564;17.412;2023-07-20T11:49:37;97716.75;;;23.83;41.28
73429;BME280;61643;49.564;17.412;2023-07-20T11:52:08;97723.94;;;23.72;41.06
73429;BME280;61643;49.564;17.412;2023-07-20T11:54:35;97726.75;;;23.60;41.86
73429;BME280;61643;49.564;17.412;2023-07-20T11:57:02;97724.44;;;23.46;42.79
73429;BME280;61643;49.564;17.412;2023-07-20T11:59:28;97739.00;;;23.35;44.40
73429;BME280;61643;49.564;17.412;2023-07-20T12:01:54;97746.97;;;23.24;44.19
73429;BME280;61643;49.564;17.412;2023-07-20T12:04:22;97753.06;;;23.18;45.55
73429;BME280;61643;49.564;17.412;2023-07-20T12:06:49;97760.69;;;22.96;51.76
73429;BME280;61643;49.564;17.412;2023-07-20T12:09:16;97778.03;;;22.36;58.73
73429;BME280;61643;49.564;17.412;2023-07-20T12:11:44;97791.78;;;21.79;66.29
73429;BME280;61643;49.564;17.412;2023-07-20T12:14:11;97808.16;;;21.01;68.79
73429;BME280;61643;49.564;17.412;2023-07-20T12:16:37;97804.19;;;20.70;69.79
73429;BME280;61643;49.564;17.412;2023-07-20T12:19:08;97807.31;;;20.59;72.26
73429;BME280;61643;49.564;17.412;2023-07-20T12:21:36;97793.22;;;20.49;73.39
73429;BME280;61643;49.564;17.412;2023-07-20T12:24:03;97797.94;;;20.40;75.13
73429;BME280;61643;49.564;17.412;2023-07-20T12:26:30;97797.47;;;20.38;74.70
73429;BME280;61643;49.564;17.412;2023-07-20T12:28:56;97791.19;;;20.37;73.21
73429;BME280;61643;49.564;17.412;2023-07-20T12:31:25;97790.88;;;20.39;74.31
73429;BME280;61643;49.564;17.412;2023-07-20T12:33:54;97783.63;;;20.43;74.37
73429;BME280;61643;49.564;17.412;2023-07-20T12:36:24;97782.56;;;20.56;73.74
73429;BME280;61643;49.564;17.412;2023-07-20T12:38:50;97784.97;;;20.78;73.69
73429;BME280;61643;49.564;17.412;2023-07-20T12:41:16;97777.66;;;21.12;72.53
73429;BME280;61643;49.564;17.412;2023-07-20T12:43:45;97771.59;;;21.39;71.55
73429;BME280;61643;49.564;17.412;2023-07-20T12:46:12;97762.41;;;21.68;69.25
73429;BME280;61643;49.564;17.412;2023-07-20T12:48:40;97759.19;;;21.98;67.04
73429;BME280;61643;49.564;17.412;2023-07-20T12:51:08;97751.28;;;22.21;61.85
73429;BME280;61643;49.564;17.412;2023-07-20T12:53:35;97749.25;;;22.42;61.23
73429;BME280;61643;49.564;17.412;2023-07-20T12:56:01;97743.28;;;22.52;58.72
73429;BME280;61643;49.564;17.412;2023-07-20T12:58:27;97741.56;;;22.60;58.93
73429;BME280;61643;49.564;17.412;2023-07-20T13:00:54;97740.97;;;22.67;58.02
73429;BME280;61643;49.564;17.412;2023-07-20T13:03:20;97740.75;;;22.72;59.38
73429;BME280;61643;49.564;17.412;2023-07-20T13:05:46;97740.09;;;22.90;57.79